To NAV CANADA Home Page Login to a new session Search on AWWS site Feedback and Comments Disclaimer Vers la page française équivalente Tips FAQ What's new on the site To the Forecasts and Observations / NOTAM section To "File a Flight Plan" website Publications and other links Update of the User's profile FIC Telephone Numbers My Weather Data Folder Route Weather Data Regional Weather Data Local Weather Data To the Forecasts and Observations / NOTAM section
Request Generated 08/22/2017 at 01:40:42 UTC . Weather information available at that time is displayed.

METAR/TAF

HALIFAX/SHEARWATER/NS    

METAR CYAW 220100Z 25007KT 15SM SCT250 22/15 A3002 RMK CI3 DA1106FT SLP167=
METAR CYAW 220000Z 25007KT 15SM BKN250 23/16 A3001 RMK CI6 DA1189FT SLP162=
METAR CYAW 212300Z 25005KT 15SM BKN250 24/16 A2999 RMK CI5 DA1336FT SLP157=

TAF CYAW 212330Z 2200/2206 25005KT P6SM BKN250
RMK NXT FCST BY 220600Z=
Your time UTC time
Weather data provided by Environment Canada and NAV CANADA